createdAt,value
2019-03-05T00:00:42.834Z,0.00
2019-03-05T00:01:42.823Z,0.00
2019-03-05T00:02:42.839Z,0.00
2019-03-05T00:03:42.802Z,0.00
2019-03-05T00:04:42.790Z,0.00
2019-03-05T00:05:42.783Z,0.00
2019-03-05T00:06:42.769Z,0.00
2019-03-05T00:07:42.803Z,0.00
2019-03-05T00:08:42.751Z,0.00
2019-03-05T00:09:42.744Z,0.00
2019-03-05T00:10:42.730Z,0.00
2019-03-05T00:11:42.721Z,0.00
2019-03-05T00:12:42.734Z,0.00
2019-03-05T00:13:42.697Z,0.00
2019-03-05T00:14:42.690Z,0.00
2019-03-05T00:15:42.681Z,0.00
2019-03-05T00:16:42.668Z,0.00
2019-03-05T00:17:42.680Z,0.00
2019-03-05T00:18:42.645Z,0.00
2019-03-05T00:19:42.636Z,0.00
2019-03-05T00:20:42.625Z,0.00
2019-03-05T00:21:42.616Z,0.00
2019-03-05T00:22:42.625Z,0.00
2019-03-05T00:23:42.601Z,0.00
2019-03-05T00:24:42.591Z,0.00
2019-03-05T00:25:42.576Z,0.00
2019-03-05T00:26:42.563Z,0.00
2019-03-05T00:27:42.575Z,0.00
2019-03-05T00:28:42.543Z,0.00
2019-03-05T00:29:42.531Z,0.00
2019-03-05T00:30:42.521Z,0.00
2019-03-05T00:31:42.515Z,0.00
2019-03-05T00:32:42.525Z,0.00
2019-03-05T00:33:42.492Z,0.00
2019-03-05T00:34:42.479Z,0.00
2019-03-05T00:35:42.469Z,0.00
2019-03-05T00:36:42.460Z,0.00
2019-03-05T00:37:42.471Z,0.00
2019-03-05T00:38:42.442Z,0.00
2019-03-05T00:39:42.428Z,0.00
2019-03-05T00:40:42.421Z,0.00
2019-03-05T00:41:42.407Z,0.00
2019-03-05T00:42:42.419Z,0.00
2019-03-05T00:43:42.390Z,0.00
2019-03-05T00:44:42.375Z,0.00
2019-03-05T00:45:42.378Z,0.00
2019-03-05T00:46:42.355Z,0.00
2019-03-05T00:47:42.366Z,0.00
2019-03-05T00:48:42.339Z,0.00
2019-03-05T00:49:42.327Z,0.00
2019-03-05T00:50:42.312Z,0.00
2019-03-05T00:51:42.303Z,0.00
2019-03-05T00:52:42.375Z,0.00
2019-03-05T00:53:42.285Z,0.00
2019-03-05T00:54:42.271Z,0.00
2019-03-05T00:55:42.263Z,0.00
2019-03-05T00:56:42.250Z,0.00
2019-03-05T00:57:42.241Z,0.00
2019-03-05T00:58:42.256Z,0.00
2019-03-05T00:59:42.295Z,0.00
2019-03-05T01:00:42.210Z,0.00
2019-03-05T01:01:42.203Z,0.00
2019-03-05T01:02:42.188Z,0.00
2019-03-05T01:03:42.202Z,0.00
2019-03-05T01:04:42.170Z,0.00
2019-03-05T01:05:42.160Z,0.00
2019-03-05T01:06:42.154Z,0.00
2019-03-05T01:07:42.145Z,0.00
2019-03-05T01:08:42.153Z,0.00
2019-03-05T01:09:42.115Z,0.00
2019-03-05T01:10:42.107Z,0.00
2019-03-05T01:11:42.095Z,0.00
2019-03-05T01:12:42.087Z,0.00
2019-03-05T01:13:42.099Z,0.00
2019-03-05T01:14:42.065Z,0.00
2019-03-05T01:15:42.055Z,0.00
2019-03-05T01:16:42.045Z,0.00
2019-03-05T01:17:42.034Z,0.00
2019-03-05T01:18:42.047Z,0.00
2019-03-05T01:19:42.011Z,0.00
2019-03-05T01:20:42.001Z,0.00
2019-03-05T01:21:41.990Z,0.00
2019-03-05T01:22:41.981Z,0.00
2019-03-05T01:23:41.994Z,0.00
2019-03-05T01:24:41.971Z,0.00
2019-03-05T01:25:41.952Z,0.00
2019-03-05T01:26:41.939Z,0.00
2019-03-05T01:27:41.928Z,0.00
2019-03-05T01:28:41.952Z,0.00
2019-03-05T01:29:41.911Z,0.00
2019-03-05T01:30:41.903Z,0.00
2019-03-05T01:31:41.888Z,0.00
2019-03-05T01:32:41.876Z,0.00
2019-03-05T01:33:41.870Z,0.00
2019-03-05T01:34:41.879Z,0.00
2019-03-05T01:35:41.852Z,0.00
2019-03-05T01:36:41.843Z,0.00
2019-03-05T01:37:41.824Z,0.00
2019-03-05T01:38:41.819Z,0.00
2019-03-05T01:39:41.826Z,0.00
2019-03-05T01:40:41.801Z,0.00
2019-03-05T01:41:41.785Z,0.00
2019-03-05T01:42:41.773Z,0.00
2019-03-05T01:43:41.770Z,0.00
2019-03-05T01:44:41.775Z,0.00
2019-03-05T01:45:41.741Z,0.00
2019-03-05T01:46:41.732Z,0.00
2019-03-05T01:47:41.724Z,0.00
2019-03-05T01:48:41.717Z,0.00
2019-03-05T01:49:41.722Z,0.00
2019-03-05T01:50:41.689Z,0.00
2019-03-05T01:51:41.679Z,0.00
2019-03-05T01:52:41.667Z,0.00
2019-03-05T01:53:41.678Z,0.00
2019-03-05T01:54:41.681Z,0.00
2019-03-05T01:55:41.637Z,0.00
2019-03-05T01:56:41.627Z,0.00
2019-03-05T01:57:41.618Z,0.00
2019-03-05T01:58:41.608Z,0.00
2019-03-05T01:59:41.596Z,0.00
2019-03-05T02:00:41.609Z,0.00
2019-03-05T02:01:41.574Z,0.00
2019-03-05T02:02:41.570Z,0.00
2019-03-05T02:03:41.553Z,0.00
2019-03-05T02:04:41.545Z,0.00
2019-03-05T02:05:41.557Z,0.00
2019-03-05T02:06:41.525Z,0.00
2019-03-05T02:07:41.514Z,0.00
2019-03-05T02:08:41.505Z,0.00
2019-03-05T02:09:41.492Z,0.00
2019-03-05T02:10:41.503Z,0.00
2019-03-05T02:11:41.471Z,0.00
2019-03-05T02:12:41.463Z,0.00
2019-03-05T02:13:41.453Z,0.00
2019-03-05T02:14:41.441Z,0.00
2019-03-05T02:15:41.455Z,0.00
2019-03-05T02:16:41.421Z,0.00
2019-03-05T02:17:41.409Z,0.00
2019-03-05T02:18:41.398Z,0.00
2019-03-05T02:19:41.388Z,0.00
2019-03-05T02:20:41.400Z,0.00
2019-03-05T02:21:41.367Z,0.00
2019-03-05T02:22:41.360Z,0.00
2019-03-05T02:23:41.346Z,0.00
2019-03-05T02:24:41.336Z,0.00
2019-03-05T02:25:41.347Z,0.00
2019-03-05T02:26:41.318Z,0.00
2019-03-05T02:27:41.309Z,0.00
2019-03-05T02:28:41.303Z,0.00
2019-03-05T02:29:41.284Z,0.00
2019-03-05T02:30:41.310Z,0.00
2019-03-05T02:31:41.266Z,0.00
2019-03-05T02:32:41.261Z,0.00
2019-03-05T02:33:41.248Z,0.00
2019-03-05T02:34:41.246Z,0.00
2019-03-05T02:35:41.222Z,0.00
2019-03-05T02:36:41.237Z,0.00
2019-03-05T02:37:41.205Z,0.00
2019-03-05T02:38:41.192Z,0.00
2019-03-05T02:39:41.183Z,0.00
2019-03-05T02:40:41.187Z,0.00
2019-03-05T02:41:41.183Z,0.00
2019-03-05T02:42:41.168Z,0.00
2019-03-05T02:43:41.159Z,0.00
2019-03-05T02:44:41.137Z,0.00
2019-03-05T02:45:41.123Z,0.00
2019-03-05T02:46:41.133Z,0.00
2019-03-05T02:47:41.099Z,0.00
2019-03-05T02:48:41.088Z,0.00
2019-03-05T02:49:41.078Z,0.00
2019-03-05T02:50:41.073Z,0.00
2019-03-05T02:51:41.097Z,0.00
2019-03-05T02:52:41.046Z,0.00
2019-03-05T02:53:41.040Z,0.00
2019-03-05T02:54:41.044Z,0.00
2019-03-05T02:55:41.014Z,0.00
2019-03-05T02:56:41.033Z,0.00
2019-03-05T02:57:41.020Z,0.00
2019-03-05T02:58:40.985Z,0.00
2019-03-05T02:59:40.974Z,0.00
2019-03-05T03:00:40.966Z,0.00
2019-03-05T03:01:40.954Z,0.00
2019-03-05T03:02:40.967Z,0.00
2019-03-05T03:03:40.933Z,0.00
2019-03-05T03:04:40.928Z,0.00
2019-03-05T03:05:40.915Z,0.00
2019-03-05T03:06:40.905Z,0.00
2019-03-05T03:07:40.912Z,0.00
2019-03-05T03:08:40.881Z,0.00
2019-03-05T03:09:40.869Z,0.00
2019-03-05T03:10:40.861Z,0.00
2019-03-05T03:11:40.854Z,0.00
2019-03-05T03:12:40.863Z,0.00
2019-03-05T03:13:40.836Z,0.00
2019-03-05T03:14:40.825Z,0.00
2019-03-05T03:15:40.808Z,0.00
2019-03-05T03:16:40.800Z,0.00
2019-03-05T03:17:40.812Z,0.00
2019-03-05T03:18:40.780Z,0.00
2019-03-05T03:19:40.769Z,0.00
2019-03-05T03:20:40.756Z,0.00
2019-03-05T03:21:40.745Z,0.00
2019-03-05T03:22:40.762Z,0.00
2019-03-05T03:23:40.727Z,0.00
2019-03-05T03:24:40.716Z,0.00
2019-03-05T03:25:40.709Z,0.00
2019-03-05T03:26:40.693Z,0.00
2019-03-05T03:27:40.717Z,0.00
2019-03-05T03:28:40.673Z,0.00
2019-03-05T03:29:40.663Z,0.00
2019-03-05T03:30:40.660Z,0.00
2019-03-05T03:31:40.790Z,0.00
2019-03-05T03:32:40.633Z,0.00
2019-03-05T03:33:40.645Z,0.00
2019-03-05T03:34:40.611Z,0.00
2019-03-05T03:35:40.599Z,0.00
2019-03-05T03:36:40.596Z,0.00
2019-03-05T03:37:40.580Z,0.00
2019-03-05T03:38:40.592Z,0.00
2019-03-05T03:39:40.558Z,0.00
2019-03-05T03:40:40.548Z,0.00
2019-03-05T03:41:40.545Z,0.00
2019-03-05T03:42:40.530Z,0.00
2019-03-05T03:43:40.538Z,0.00
2019-03-05T03:44:40.522Z,0.00
2019-03-05T03:45:40.494Z,0.00
2019-03-05T03:46:40.490Z,0.00
2019-03-05T03:47:40.472Z,0.00
2019-03-05T03:48:40.484Z,0.00
2019-03-05T03:49:40.453Z,0.00
2019-03-05T03:50:40.442Z,0.00
2019-03-05T03:51:40.438Z,0.00
2019-03-05T03:52:40.424Z,0.00
2019-03-05T03:53:40.437Z,0.00
2019-03-05T03:54:40.401Z,0.00
2019-03-05T03:55:40.391Z,0.00
2019-03-05T03:56:40.380Z,0.00
2019-03-05T03:57:40.374Z,0.00
2019-03-05T03:58:40.385Z,0.00
2019-03-05T03:59:40.354Z,0.00
2019-03-05T04:00:40.339Z,0.00
2019-03-05T04:01:40.328Z,0.00
2019-03-05T04:02:40.317Z,0.00
2019-03-05T04:03:40.334Z,0.00
2019-03-05T04:04:40.299Z,0.00
2019-03-05T04:05:40.292Z,0.00
2019-03-05T04:06:40.284Z,0.00
2019-03-05T04:07:40.273Z,0.00
2019-03-05T04:08:40.278Z,0.00
2019-03-05T04:09:40.316Z,0.00
2019-03-05T04:10:40.235Z,0.00
2019-03-05T04:11:40.231Z,0.00
2019-03-05T04:12:40.215Z,0.00
2019-03-05T04:13:40.231Z,0.00
2019-03-05T04:14:40.195Z,0.00
2019-03-05T04:15:40.198Z,0.00
2019-03-05T04:16:40.181Z,0.00
2019-03-05T04:17:40.165Z,0.00
2019-03-05T04:18:40.180Z,0.00
2019-03-05T04:19:40.140Z,0.00
2019-03-05T04:20:40.130Z,0.00
2019-03-05T04:21:40.128Z,0.00
2019-03-05T04:22:40.110Z,0.00
2019-03-05T04:23:40.335Z,0.00
2019-03-05T04:24:40.089Z,0.00
2019-03-05T04:25:40.078Z,0.00
2019-03-05T04:26:40.067Z,0.00
2019-03-05T04:27:40.067Z,0.00
2019-03-05T04:28:40.054Z,0.00
2019-03-05T04:29:40.058Z,0.00
2019-03-05T04:30:40.034Z,0.00
2019-03-05T04:31:40.015Z,0.00
2019-03-05T04:32:40.013Z,0.00
2019-03-05T04:33:39.998Z,0.00
2019-03-05T04:34:40.010Z,0.00
2019-03-05T04:35:39.975Z,0.00
2019-03-05T04:36:39.964Z,0.00
2019-03-05T04:37:39.956Z,0.00
2019-03-05T04:38:39.943Z,0.00
2019-03-05T04:39:39.959Z,0.00
2019-03-05T04:40:39.921Z,0.00
2019-03-05T04:41:39.913Z,0.00
2019-03-05T04:42:39.903Z,0.00
2019-03-05T04:43:39.893Z,0.00
2019-03-05T04:44:39.901Z,0.00
2019-03-05T04:45:39.871Z,0.00
2019-03-05T04:46:39.862Z,0.00
2019-03-05T04:47:39.850Z,0.00
2019-03-05T04:48:39.838Z,0.00
2019-03-05T04:49:39.851Z,0.00
2019-03-05T04:50:39.819Z,0.00
2019-03-05T04:51:39.808Z,0.00
2019-03-05T04:52:39.862Z,0.00
2019-03-05T04:53:39.787Z,0.00
2019-03-05T04:54:39.805Z,0.00
2019-03-05T04:55:39.766Z,0.00
2019-03-05T04:56:39.757Z,0.00
2019-03-05T04:57:39.745Z,0.00
2019-03-05T04:58:39.739Z,0.00
2019-03-05T04:59:39.725Z,0.00
2019-03-05T05:00:39.735Z,0.00
2019-03-05T05:01:39.707Z,0.00
2019-03-05T05:02:39.692Z,0.00
2019-03-05T05:03:39.686Z,0.00
2019-03-05T05:04:39.672Z,0.00
2019-03-05T05:05:39.688Z,0.00
2019-03-05T05:06:39.652Z,0.00
2019-03-05T05:07:39.642Z,0.00
2019-03-05T05:08:39.630Z,0.00
2019-03-05T05:09:39.620Z,0.00
2019-03-05T05:10:39.635Z,0.00
2019-03-05T05:11:39.601Z,0.00
2019-03-05T05:12:39.587Z,0.00
2019-03-05T05:13:39.578Z,0.00
2019-03-05T05:14:39.568Z,0.00
2019-03-05T05:15:39.578Z,0.00
2019-03-05T05:16:39.547Z,0.00
2019-03-05T05:17:39.541Z,0.00
2019-03-05T05:18:39.525Z,0.00
2019-03-05T05:19:39.515Z,0.00
2019-03-05T05:20:39.529Z,0.00
2019-03-05T05:21:39.497Z,0.00
2019-03-05T05:22:39.484Z,0.00
2019-03-05T05:23:39.481Z,0.00
2019-03-05T05:24:39.463Z,0.00
2019-03-05T05:25:39.476Z,0.00
2019-03-05T05:26:39.447Z,0.00
2019-03-05T05:27:39.437Z,0.00
2019-03-05T05:28:39.425Z,0.00
2019-03-05T05:29:39.417Z,0.00
2019-03-05T05:30:39.429Z,0.00
2019-03-05T05:31:39.393Z,0.00
2019-03-05T05:32:39.381Z,0.00
2019-03-05T05:33:39.368Z,0.00
2019-03-05T05:34:39.373Z,0.00
2019-03-05T05:35:39.375Z,0.00
2019-03-05T05:36:39.342Z,0.00
2019-03-05T05:37:39.329Z,0.00
2019-03-05T05:38:39.316Z,0.00
2019-03-05T05:39:39.307Z,0.00
2019-03-05T05:40:39.346Z,0.00
2019-03-05T05:41:39.284Z,0.00
2019-03-05T05:42:39.274Z,0.00
2019-03-05T05:43:39.270Z,0.00
2019-03-05T05:44:39.264Z,0.00
2019-03-05T05:45:39.243Z,0.00
2019-03-05T05:46:39.257Z,0.00
2019-03-05T05:47:39.222Z,4.00
2019-03-05T05:48:39.212Z,4.00
2019-03-05T05:49:39.204Z,0.00
2019-03-05T05:50:39.191Z,4.00
2019-03-05T05:51:39.207Z,4.00
2019-03-05T05:52:39.170Z,4.00
2019-03-05T05:53:39.165Z,8.00
2019-03-05T05:54:39.148Z,4.00
2019-03-05T05:55:39.140Z,8.00
2019-03-05T05:56:39.157Z,8.00
2019-03-05T05:57:39.132Z,8.00
2019-03-05T05:58:39.108Z,4.00
2019-03-05T05:59:39.100Z,8.00
2019-03-05T06:00:39.087Z,8.00
2019-03-05T06:01:39.101Z,12.00
2019-03-05T06:02:39.067Z,12.00
2019-03-05T06:03:39.055Z,16.00
2019-03-05T06:04:39.046Z,28.00
2019-03-05T06:05:39.035Z,32.00
2019-03-05T06:06:39.049Z,28.00
2019-03-05T06:07:39.015Z,32.00
2019-03-05T06:08:39.007Z,36.00
2019-03-05T06:09:38.993Z,36.00
2019-03-05T06:10:38.983Z,40.00
2019-03-05T06:11:39.000Z,44.00
2019-03-05T06:12:38.964Z,48.00
2019-03-05T06:13:38.959Z,52.00
2019-03-05T06:14:38.943Z,40.00
2019-03-05T06:15:38.938Z,60.00
2019-03-05T06:16:38.943Z,60.00
2019-03-05T06:17:38.911Z,56.00
2019-03-05T06:18:38.902Z,64.00
2019-03-05T06:19:38.888Z,80.00
2019-03-05T06:20:38.883Z,80.00
2019-03-05T06:21:38.892Z,88.00
2019-03-05T06:22:38.858Z,92.00
2019-03-05T06:23:38.849Z,104.00
2019-03-05T06:24:38.838Z,120.00
2019-03-05T06:25:38.829Z,104.00
2019-03-05T06:26:38.844Z,132.00
2019-03-05T06:27:38.806Z,164.00
2019-03-05T06:28:38.840Z,132.00
2019-03-05T06:29:38.787Z,140.00
2019-03-05T06:30:38.779Z,164.00
2019-03-05T06:31:38.767Z,184.00
2019-03-05T06:32:38.776Z,172.00
2019-03-05T06:33:38.744Z,168.00
2019-03-05T06:34:38.736Z,160.00
2019-03-05T06:35:38.726Z,156.00
2019-03-05T06:36:38.714Z,188.00
2019-03-05T06:37:38.730Z,196.00
2019-03-05T06:38:38.695Z,232.00
2019-03-05T06:39:38.684Z,292.00
2019-03-05T06:40:38.672Z,244.00
2019-03-05T06:41:38.661Z,284.00
2019-03-05T06:42:38.673Z,340.00
2019-03-05T06:43:38.639Z,360.00
2019-03-05T06:44:38.630Z,304.00
2019-03-05T06:45:38.624Z,380.00
2019-03-05T06:46:38.611Z,272.00
2019-03-05T06:47:38.620Z,280.00
2019-03-05T06:48:38.587Z,408.00
2019-03-05T06:49:38.578Z,384.00
2019-03-05T06:50:38.566Z,444.00
2019-03-05T06:51:38.561Z,480.00
2019-03-05T06:52:38.569Z,540.00
2019-03-05T06:53:38.536Z,560.00
2019-03-05T06:54:38.527Z,488.00
2019-03-05T06:55:38.514Z,584.00
2019-03-05T06:56:38.503Z,612.00
2019-03-05T06:57:38.516Z,608.00
2019-03-05T06:58:38.488Z,636.00
2019-03-05T06:59:38.473Z,724.00
2019-03-05T07:00:38.463Z,812.00
2019-03-05T07:01:38.451Z,780.00
2019-03-05T07:02:38.466Z,704.00
2019-03-05T07:03:38.431Z,664.00
2019-03-05T07:04:38.426Z,628.00
2019-03-05T07:05:38.415Z,560.00
2019-03-05T07:06:38.404Z,556.00
2019-03-05T07:07:38.411Z,436.00
2019-03-05T07:08:38.379Z,488.00
2019-03-05T07:09:38.371Z,456.00
2019-03-05T07:10:38.358Z,428.00
2019-03-05T07:11:38.349Z,336.00
2019-03-05T07:12:38.370Z,392.00
2019-03-05T07:13:38.327Z,308.00
2019-03-05T07:14:38.317Z,344.00
2019-03-05T07:15:38.316Z,360.00
2019-03-05T07:16:38.296Z,456.00
2019-03-05T07:17:38.285Z,604.00
2019-03-05T07:18:38.296Z,648.00
2019-03-05T07:19:38.270Z,596.00
2019-03-05T07:20:38.254Z,656.00
2019-03-05T07:21:38.243Z,720.00
2019-03-05T07:22:38.233Z,880.00
2019-03-05T07:23:38.252Z,812.00
2019-03-05T07:24:38.212Z,808.00
2019-03-05T07:25:38.202Z,804.00
2019-03-05T07:26:38.192Z,852.00
2019-03-05T07:27:38.188Z,908.00
2019-03-05T07:28:38.191Z,868.00
2019-03-05T07:29:38.161Z,864.00
2019-03-05T07:30:38.149Z,856.00
2019-03-05T07:31:38.139Z,848.00
2019-03-05T07:32:38.130Z,1064.00
2019-03-05T07:33:38.145Z,1516.00
2019-03-05T07:34:38.114Z,1312.00
2019-03-05T07:35:38.097Z,1276.00
2019-03-05T07:36:38.107Z,1464.00
2019-03-05T07:37:38.077Z,1272.00
2019-03-05T07:38:38.093Z,1052.00
2019-03-05T07:39:38.056Z,1076.00
2019-03-05T07:40:38.048Z,1280.00
2019-03-05T07:41:38.034Z,1272.00
2019-03-05T07:42:38.024Z,1572.00
2019-03-05T07:43:38.095Z,1856.00
2019-03-05T07:44:38.006Z,2152.00
2019-03-05T07:45:37.993Z,1716.00
2019-03-05T07:46:37.986Z,1712.00
2019-03-05T07:47:37.973Z,2352.00
2019-03-05T07:48:37.962Z,2416.00
2019-03-05T07:49:43.768Z,2544.00
2019-03-05T07:50:38.941Z,2484.00
2019-03-05T07:51:37.933Z,2340.00
2019-03-05T07:52:37.921Z,2264.00
2019-03-05T07:53:37.910Z,2520.00
2019-03-05T07:54:37.921Z,2396.00
2019-03-05T07:55:37.891Z,2624.00
2019-03-05T07:56:37.884Z,2280.00
2019-03-05T07:57:37.869Z,2096.00
2019-03-05T07:58:37.858Z,1916.00
2019-03-05T07:59:37.874Z,1852.00
2019-03-05T08:00:37.838Z,1724.00
2019-03-05T08:01:37.829Z,1696.00
2019-03-05T08:02:37.816Z,1808.00
2019-03-05T08:03:37.807Z,1664.00
2019-03-05T08:04:37.816Z,1404.00
2019-03-05T08:05:37.785Z,1304.00
2019-03-05T08:06:37.777Z,1652.00
2019-03-05T08:07:37.769Z,1468.00
2019-03-05T08:08:37.757Z,1704.00
2019-03-05T08:09:37.768Z,1856.00
2019-03-05T08:10:37.733Z,2132.00
2019-03-05T08:11:37.725Z,1836.00
2019-03-05T08:12:37.714Z,2040.00
2019-03-05T08:13:37.704Z,2388.00
2019-03-05T08:14:37.713Z,2376.00
2019-03-05T08:15:37.695Z,2604.00
2019-03-05T08:16:37.674Z,2904.00
2019-03-05T08:17:37.662Z,2688.00
2019-03-05T08:18:37.653Z,2740.00
2019-03-05T08:19:37.676Z,2496.00
2019-03-05T08:20:37.633Z,2724.00
2019-03-05T08:21:37.620Z,2364.00
2019-03-05T08:22:37.609Z,2128.00
2019-03-05T08:23:37.597Z,1712.00
2019-03-05T08:24:37.588Z,2152.00
2019-03-05T08:25:37.599Z,2060.00
2019-03-05T08:26:37.565Z,2488.00
2019-03-05T08:27:37.558Z,2408.00
2019-03-05T08:28:37.545Z,2632.00
2019-03-05T08:29:37.543Z,2496.00
2019-03-05T08:30:37.556Z,3164.00
2019-03-05T08:31:37.515Z,3044.00
2019-03-05T08:32:37.615Z,2712.00
2019-03-05T08:33:37.509Z,2476.00
2019-03-05T08:34:37.482Z,2104.00
2019-03-05T08:35:37.494Z,2936.00
2019-03-05T08:36:37.465Z,2512.00
2019-03-05T08:37:37.453Z,2796.00
2019-03-05T08:38:37.441Z,2832.00
2019-03-05T08:39:37.432Z,3180.00
2019-03-05T08:40:37.444Z,2948.00
2019-03-05T08:41:37.410Z,2976.00
2019-03-05T08:42:37.401Z,3448.00
2019-03-05T08:43:37.398Z,3088.00
2019-03-05T08:44:37.380Z,3568.00
2019-03-05T08:45:37.392Z,3236.00
2019-03-05T08:46:37.359Z,3124.00
2019-03-05T08:47:37.347Z,3904.00
2019-03-05T08:48:37.342Z,2668.00
2019-03-05T08:49:37.327Z,2404.00
2019-03-05T08:50:37.341Z,2028.00
2019-03-05T08:51:37.308Z,2056.00
2019-03-05T08:52:37.297Z,1860.00
2019-03-05T08:53:37.285Z,1696.00
2019-03-05T08:54:37.274Z,1952.00
2019-03-05T08:55:37.298Z,1672.00
2019-03-05T08:56:37.256Z,1400.00
2019-03-05T08:57:37.243Z,1524.00
2019-03-05T08:58:37.236Z,1436.00
2019-03-05T08:59:37.223Z,1436.00
2019-03-05T09:00:37.267Z,2012.00
2019-03-05T09:01:37.227Z,1372.00
2019-03-05T09:02:47.759Z,1076.00
2019-03-05T09:03:38.180Z,1084.00
2019-03-05T09:04:37.171Z,1268.00
2019-03-05T09:05:37.161Z,1148.00
2019-03-05T09:06:37.238Z,1092.00
2019-03-05T09:07:37.138Z,1172.00
2019-03-05T09:08:38.469Z,1456.00
2019-03-05T09:09:37.119Z,1368.00
2019-03-05T09:10:37.110Z,1444.00
2019-03-05T09:11:37.122Z,1596.00
2019-03-05T09:12:37.093Z,1460.00
2019-03-05T09:13:37.081Z,1344.00
2019-03-05T09:14:37.066Z,1316.00
2019-03-05T09:15:37.055Z,904.00
2019-03-05T09:16:37.073Z,900.00
2019-03-05T09:17:37.036Z,1124.00
2019-03-05T09:18:37.033Z,1352.00
2019-03-05T09:19:37.013Z,1504.00
2019-03-05T09:20:37.004Z,2052.00
2019-03-05T09:21:37.015Z,3536.00
2019-03-05T09:22:36.986Z,2136.00
2019-03-05T09:23:36.973Z,3140.00
2019-03-05T09:24:36.961Z,4012.00
2019-03-05T09:25:36.951Z,3636.00
2019-03-05T09:26:36.962Z,2632.00
2019-03-05T09:27:36.930Z,3212.00
2019-03-05T09:28:36.921Z,3640.00
2019-03-05T09:29:36.916Z,3464.00
2019-03-05T09:30:36.899Z,3368.00
2019-03-05T09:31:36.909Z,2268.00
2019-03-05T09:32:36.879Z,1932.00
2019-03-05T09:33:36.869Z,2076.00
2019-03-05T09:34:36.861Z,2340.00
2019-03-05T09:35:36.850Z,3976.00
2019-03-05T09:36:36.858Z,3596.00
2019-03-05T09:37:36.827Z,3124.00
2019-03-05T09:38:36.822Z,3336.00
2019-03-05T09:39:36.842Z,3648.00
2019-03-05T09:40:36.795Z,4704.00
2019-03-05T09:41:36.817Z,4052.00
2019-03-05T09:42:40.198Z,3860.00
2019-03-05T09:43:36.764Z,4220.00
2019-03-05T09:44:36.757Z,3644.00
2019-03-05T09:45:36.745Z,4220.00
2019-03-05T09:46:36.881Z,3168.00
2019-03-05T09:47:36.750Z,3056.00
2019-03-05T09:48:36.711Z,3224.00
2019-03-05T09:49:36.701Z,3544.00
2019-03-05T09:50:36.692Z,4576.00
2019-03-05T09:51:36.682Z,6128.00
2019-03-05T09:52:36.692Z,4864.00
2019-03-05T09:53:36.661Z,4152.00
2019-03-05T09:54:36.647Z,6536.00
2019-03-05T09:55:36.638Z,6024.00
2019-03-05T09:56:36.629Z,6124.00
2019-03-05T09:57:36.644Z,6328.00
2019-03-05T09:58:36.612Z,6460.00
2019-03-05T09:59:36.596Z,7532.00
2019-03-05T10:00:36.587Z,8360.00
2019-03-05T10:01:36.575Z,7452.00
2019-03-05T10:02:36.590Z,6704.00
2019-03-05T10:03:36.558Z,5716.00
2019-03-05T10:04:36.544Z,5012.00
2019-03-05T10:05:36.537Z,4908.00
2019-03-05T10:06:36.524Z,5592.00
2019-03-05T10:07:36.538Z,7120.00
2019-03-05T10:08:36.505Z,8772.00
2019-03-05T10:09:36.493Z,8368.00
2019-03-05T10:10:36.483Z,7860.00
2019-03-05T10:11:36.475Z,7548.00
2019-03-05T10:12:36.483Z,7808.00
2019-03-05T10:13:36.458Z,7880.00
2019-03-05T10:14:36.444Z,6180.00
2019-03-05T10:15:36.430Z,5696.00
2019-03-05T10:16:36.420Z,6816.00
2019-03-05T10:17:38.160Z,6748.00
2019-03-05T10:18:36.399Z,6108.00
2019-03-05T10:19:38.466Z,7192.00
2019-03-05T10:20:36.383Z,6412.00
2019-03-05T10:21:45.922Z,7636.00
2019-03-05T10:22:37.378Z,7628.00
2019-03-05T10:23:36.347Z,5620.00
2019-03-05T10:24:36.338Z,5256.00
2019-03-05T10:25:36.329Z,4472.00
2019-03-05T10:26:36.321Z,4172.00
2019-03-05T10:27:36.331Z,5584.00
2019-03-05T10:28:36.294Z,3996.00
2019-03-05T10:29:36.284Z,3856.00
2019-03-05T10:30:36.273Z,3792.00
2019-03-05T10:31:36.264Z,4016.00
2019-03-05T10:32:36.277Z,3676.00
2019-03-05T10:33:36.243Z,2776.00
2019-03-05T10:34:36.233Z,2564.00
2019-03-05T10:35:36.227Z,3676.00
2019-03-05T10:36:36.214Z,5400.00
2019-03-05T10:37:36.221Z,5732.00
2019-03-05T10:38:36.190Z,4972.00
2019-03-05T10:39:36.179Z,5512.00
2019-03-05T10:40:36.169Z,6388.00
2019-03-05T10:41:36.158Z,5044.00
2019-03-05T10:42:36.188Z,3828.00
2019-03-05T10:43:36.139Z,3064.00
2019-03-05T10:44:36.165Z,3128.00
2019-03-05T10:45:36.118Z,2356.00
2019-03-05T10:46:36.105Z,2084.00
2019-03-05T10:47:36.096Z,1756.00
2019-03-05T10:48:36.106Z,2568.00
2019-03-05T10:49:36.076Z,5204.00
2019-03-05T10:50:36.070Z,7476.00
2019-03-05T10:51:36.054Z,8616.00
2019-03-05T10:52:36.045Z,7304.00
2019-03-05T10:53:36.057Z,4288.00
2019-03-05T10:54:36.026Z,4168.00
2019-03-05T10:55:36.015Z,3372.00
2019-03-05T10:56:36.003Z,2004.00
2019-03-05T10:57:35.992Z,2412.00
2019-03-05T10:58:36.005Z,4384.00
2019-03-05T10:59:35.973Z,6860.00
2019-03-05T11:00:35.961Z,9260.00
2019-03-05T11:01:35.951Z,7288.00
2019-03-05T11:02:35.939Z,7648.00
2019-03-05T11:03:35.955Z,8932.00
2019-03-05T11:04:45.433Z,6884.00
2019-03-05T11:05:36.910Z,5220.00
2019-03-05T11:06:35.899Z,4320.00
2019-03-05T11:07:35.887Z,4596.00
2019-03-05T11:08:35.900Z,5784.00
2019-03-05T11:09:35.866Z,5640.00
2019-03-05T11:10:35.860Z,4936.00
2019-03-05T11:11:35.846Z,7588.00
2019-03-05T11:12:35.834Z,9952.00
2019-03-05T11:13:35.847Z,9140.00
2019-03-05T11:14:35.871Z,8160.00
2019-03-05T11:15:35.804Z,10380.00
2019-03-05T11:16:35.791Z,9256.00
2019-03-05T11:17:35.781Z,8892.00
2019-03-05T11:18:35.796Z,8544.00
2019-03-05T11:19:35.761Z,8368.00
2019-03-05T11:20:35.749Z,8928.00
2019-03-05T11:21:35.741Z,11144.00
2019-03-05T11:22:35.754Z,12372.00
2019-03-05T11:23:35.744Z,10336.00
2019-03-05T11:24:35.707Z,9948.00
2019-03-05T11:25:35.703Z,10372.00
2019-03-05T11:26:35.688Z,10828.00
2019-03-05T11:27:35.676Z,9844.00
2019-03-05T11:28:35.690Z,9192.00
2019-03-05T11:29:35.655Z,7348.00
2019-03-05T11:30:36.594Z,4936.00
2019-03-05T11:31:35.638Z,4128.00
2019-03-05T11:32:35.624Z,3608.00
2019-03-05T11:33:35.643Z,3632.00
2019-03-05T11:34:35.603Z,4096.00
2019-03-05T11:35:35.593Z,4356.00
2019-03-05T11:36:35.589Z,4376.00
2019-03-05T11:37:35.576Z,6452.00
2019-03-05T11:38:35.569Z,8412.00
2019-03-05T11:39:35.573Z,10124.00
2019-03-05T11:40:35.543Z,14560.00
2019-03-05T11:41:35.531Z,6304.00
2019-03-05T11:42:35.521Z,5416.00
2019-03-05T11:43:35.523Z,4580.00
2019-03-05T11:44:35.531Z,5284.00
2019-03-05T11:45:35.488Z,3732.00
2019-03-05T11:46:35.479Z,3188.00
2019-03-05T11:47:35.465Z,3984.00
2019-03-05T11:48:35.457Z,4960.00
2019-03-05T11:49:35.468Z,12764.00
2019-03-05T11:50:35.436Z,10420.00
2019-03-05T11:51:35.425Z,9812.00
2019-03-05T11:52:35.413Z,11244.00
2019-03-05T11:53:35.406Z,41792.00
2019-03-05T11:54:35.416Z,30688.00
2019-03-05T11:55:35.383Z,20544.00
2019-03-05T11:56:35.372Z,14676.00
2019-03-05T11:57:35.362Z,20800.00
2019-03-05T11:58:35.353Z,75008.00
2019-03-05T11:59:35.363Z,71840.00
2019-03-05T12:00:35.334Z,72832.00
2019-03-05T12:01:35.321Z,14364.00
2019-03-05T12:02:35.313Z,14668.00
2019-03-05T12:03:35.305Z,23360.00
2019-03-05T12:04:35.312Z,13356.00
2019-03-05T12:05:35.282Z,14100.00
2019-03-05T12:06:35.267Z,69952.00
2019-03-05T12:07:35.258Z,76000.00
2019-03-05T12:08:35.254Z,72128.00
2019-03-05T12:09:35.260Z,71456.00
2019-03-05T12:10:35.226Z,13916.00
2019-03-05T12:11:35.223Z,20384.00
2019-03-05T12:12:35.205Z,15568.00
2019-03-05T12:13:35.193Z,26560.00
2019-03-05T12:14:35.205Z,23968.00
2019-03-05T12:15:35.171Z,31424.00
2019-03-05T12:16:35.163Z,75456.00
2019-03-05T12:17:35.150Z,73312.00
2019-03-05T12:18:35.140Z,75392.00
2019-03-05T12:19:35.158Z,70496.00
2019-03-05T12:20:35.123Z,56288.00
2019-03-05T12:21:35.118Z,73408.00
2019-03-05T12:22:35.097Z,71296.00
2019-03-05T12:23:35.088Z,74336.00
2019-03-05T12:24:35.099Z,56608.00
2019-03-05T12:25:36.019Z,31008.00
2019-03-05T12:26:35.057Z,10360.00
2019-03-05T12:27:36.031Z,8556.00
2019-03-05T12:28:35.032Z,8740.00
2019-03-05T12:29:35.062Z,21696.00
2019-03-05T12:30:35.015Z,70272.00
2019-03-05T12:31:35.002Z,47488.00
2019-03-05T12:32:34.991Z,21216.00
2019-03-05T12:33:34.981Z,36096.00
2019-03-05T12:34:34.970Z,33728.00
2019-03-05T12:35:35.627Z,19552.00
2019-03-05T12:36:34.955Z,15136.00
2019-03-05T12:37:34.945Z,15084.00
2019-03-05T12:38:34.928Z,9052.00
2019-03-05T12:39:34.916Z,7488.00
2019-03-05T12:40:34.931Z,9608.00